createdAt,value
2023-07-25T00:01:19.023Z,74.03
2023-07-25T00:03:49.031Z,74.20
2023-07-25T00:06:15.706Z,73.88
2023-07-25T00:08:42.201Z,73.77
2023-07-25T00:11:13.774Z,73.92
2023-07-25T00:13:40.190Z,73.98
2023-07-25T00:16:06.690Z,73.91
2023-07-25T00:18:33.202Z,73.85
2023-07-25T00:20:59.767Z,73.97
2023-07-25T00:23:26.206Z,73.95
2023-07-25T00:25:52.719Z,73.97
2023-07-25T00:28:19.230Z,74.21
2023-07-25T00:30:45.643Z,74.21
2023-07-25T00:33:12.015Z,74.17
2023-07-25T00:35:38.527Z,74.02
2023-07-25T00:38:07.712Z,74.21
2023-07-25T00:40:39.532Z,74.11
2023-07-25T00:43:05.926Z,74.36
2023-07-25T00:45:34.914Z,74.10
2023-07-25T00:48:01.942Z,73.91
2023-07-25T00:50:28.607Z,73.93
2023-07-25T00:52:58.323Z,74.04
2023-07-25T00:55:24.883Z,74.22
2023-07-25T00:57:51.682Z,74.23
2023-07-25T01:00:18.121Z,74.27
2023-07-25T01:02:44.677Z,74.17
2023-07-25T01:05:11.527Z,74.16
2023-07-25T01:07:41.146Z,73.74
2023-07-25T01:10:08.353Z,73.76
2023-07-25T01:12:34.810Z,73.78
2023-07-25T01:15:01.419Z,74.18
2023-07-25T01:17:28.189Z,73.99
2023-07-25T01:19:55.447Z,73.90
2023-07-25T01:22:23.674Z,74.20
2023-07-25T01:24:50.183Z,74.34
2023-07-25T01:27:17.150Z,74.46
2023-07-25T01:29:43.976Z,73.96
2023-07-25T01:32:10.937Z,74.19
2023-07-25T01:34:37.486Z,74.17
2023-07-25T01:37:07.617Z,74.21
2023-07-25T01:39:34.089Z,73.96
2023-07-25T01:42:00.673Z,73.85
2023-07-25T01:44:27.137Z,73.60
2023-07-25T01:46:57.349Z,73.68
2023-07-25T01:49:23.870Z,73.64
2023-07-25T01:51:50.394Z,74.01
2023-07-25T01:54:17.878Z,73.88
2023-07-25T01:56:44.434Z,73.95
2023-07-25T01:59:12.060Z,74.00
2023-07-25T02:01:38.536Z,74.19
2023-07-25T02:04:05.112Z,74.41
2023-07-25T02:06:31.630Z,74.35
2023-07-25T02:08:58.017Z,74.27
2023-07-25T02:11:24.528Z,74.24
2023-07-25T02:13:50.972Z,73.98
2023-07-25T02:16:17.412Z,74.09
2023-07-25T02:18:43.829Z,74.24
2023-07-25T02:21:10.246Z,74.27
2023-07-25T02:23:36.754Z,74.16
2023-07-25T02:26:03.295Z,74.35
2023-07-25T02:28:29.808Z,74.49
2023-07-25T02:30:56.296Z,74.51
2023-07-25T02:33:22.765Z,74.33
2023-07-25T02:35:49.182Z,74.40
2023-07-25T02:38:16.556Z,74.27
2023-07-25T02:40:43.316Z,74.44
2023-07-25T02:43:09.743Z,74.39
2023-07-25T02:45:36.191Z,74.12
2023-07-25T02:48:02.794Z,74.13
2023-07-25T02:50:29.374Z,74.30
2023-07-25T02:52:55.935Z,74.20
2023-07-25T02:55:22.516Z,74.06
2023-07-25T02:57:48.952Z,73.79
2023-07-25T03:00:15.550Z,73.99
2023-07-25T03:02:42.042Z,74.07
2023-07-25T03:05:09.591Z,74.29
2023-07-25T03:07:36.069Z,74.30
2023-07-25T03:10:02.488Z,74.40
2023-07-25T03:12:28.976Z,74.59
2023-07-25T03:14:55.480Z,74.69
2023-07-25T03:17:21.960Z,74.61
2023-07-25T03:19:48.355Z,74.69
2023-07-25T03:22:14.747Z,74.58
2023-07-25T03:24:41.322Z,74.95
2023-07-25T03:27:07.981Z,74.43
2023-07-25T03:29:34.719Z,74.36
2023-07-25T03:32:03.931Z,74.17
2023-07-25T03:34:30.350Z,74.32
2023-07-25T03:36:56.897Z,74.62
2023-07-25T03:39:23.451Z,74.50
2023-07-25T03:41:49.858Z,74.34
2023-07-25T03:44:20.621Z,74.57
2023-07-25T03:46:47.679Z,74.85
2023-07-25T03:49:14.496Z,75.01
2023-07-25T03:51:41.028Z,75.31
2023-07-25T03:54:08.101Z,75.25
2023-07-25T03:56:34.927Z,75.46
2023-07-25T03:59:01.778Z,75.42
2023-07-25T04:01:28.925Z,75.93
2023-07-25T04:03:55.478Z,75.89
2023-07-25T04:06:22.009Z,76.20
2023-07-25T04:08:48.548Z,76.10
2023-07-25T04:11:15.362Z,76.35
2023-07-25T04:13:41.993Z,76.37
2023-07-25T04:16:08.470Z,76.80
2023-07-25T04:18:35.030Z,76.97
2023-07-25T04:21:04.349Z,76.77
2023-07-25T04:23:30.776Z,76.82
2023-07-25T04:25:57.341Z,77.11
2023-07-25T04:28:23.809Z,77.30
2023-07-25T04:30:50.296Z,77.46
2023-07-25T04:33:16.723Z,77.29
2023-07-25T04:35:46.281Z,77.51
2023-07-25T04:38:16.146Z,77.68
2023-07-25T04:40:45.767Z,77.75
2023-07-25T04:43:12.370Z,77.86
2023-07-25T04:45:39.341Z,78.01
2023-07-25T04:48:06.631Z,78.16
2023-07-25T04:50:33.250Z,78.15
2023-07-25T04:52:59.668Z,78.31
2023-07-25T04:55:26.102Z,78.47
2023-07-25T04:57:52.700Z,78.35
2023-07-25T05:00:19.289Z,78.66
2023-07-25T05:02:45.879Z,78.49
2023-07-25T05:05:12.474Z,78.39
2023-07-25T05:07:38.916Z,78.60
2023-07-25T05:10:05.843Z,78.77
2023-07-25T05:12:32.729Z,78.96
2023-07-25T05:14:59.244Z,79.04
2023-07-25T05:17:25.728Z,79.10
2023-07-25T05:19:52.154Z,79.28
2023-07-25T05:22:18.607Z,79.43
2023-07-25T05:24:45.095Z,79.46
2023-07-25T05:27:11.829Z,79.81
2023-07-25T05:29:38.287Z,79.55
2023-07-25T05:32:05.079Z,79.74
2023-07-25T05:34:31.594Z,79.92
2023-07-25T05:36:58.034Z,80.25
2023-07-25T05:39:24.633Z,80.05
2023-07-25T05:41:51.025Z,79.87
2023-07-25T05:44:17.472Z,80.10
2023-07-25T05:46:43.930Z,80.01
2023-07-25T05:49:10.332Z,80.16
2023-07-25T05:51:36.782Z,80.21
2023-07-25T05:54:03.573Z,79.97
2023-07-25T05:56:30.097Z,80.12
2023-07-25T05:58:56.583Z,80.34
2023-07-25T06:01:23.030Z,79.98
2023-07-25T06:03:49.529Z,80.10
2023-07-25T06:06:15.969Z,79.96
2023-07-25T06:08:42.408Z,79.63
2023-07-25T06:11:09.149Z,79.79
2023-07-25T06:13:35.685Z,79.94
2023-07-25T06:16:02.544Z,80.11
2023-07-25T06:18:29.070Z,80.09
2023-07-25T06:20:55.662Z,79.97
2023-07-25T06:23:22.200Z,80.07
2023-07-25T06:25:48.625Z,80.10
2023-07-25T06:28:18.753Z,79.17
2023-07-25T06:30:45.348Z,79.54
2023-07-25T06:33:16.554Z,79.38
2023-07-25T06:35:43.016Z,78.58
2023-07-25T06:38:09.522Z,78.41
2023-07-25T06:40:35.973Z,78.38
2023-07-25T06:43:02.456Z,78.21
2023-07-25T06:45:28.951Z,77.98
2023-07-25T06:47:55.421Z,77.51
2023-07-25T06:50:22.060Z,76.30
2023-07-25T06:52:48.609Z,76.09
2023-07-25T06:55:16.390Z,75.61
2023-07-25T06:57:42.858Z,75.25
2023-07-25T07:00:10.087Z,74.80
2023-07-25T07:02:36.644Z,74.04
2023-07-25T07:05:15.376Z,73.73
2023-07-25T07:07:50.021Z,73.48
2023-07-25T07:10:16.468Z,72.32
2023-07-25T07:12:48.747Z,72.10
2023-07-25T07:15:18.511Z,72.15
2023-07-25T07:17:45.156Z,71.86
2023-07-25T07:20:12.128Z,71.14
2023-07-25T07:22:38.597Z,70.16
2023-07-25T07:25:05.642Z,70.53
2023-07-25T07:27:32.277Z,68.81
2023-07-25T07:29:58.889Z,69.55
2023-07-25T07:32:25.442Z,69.00
2023-07-25T07:34:52.096Z,68.85
2023-07-25T07:37:18.578Z,67.94
2023-07-25T07:39:45.053Z,67.70
2023-07-25T07:42:11.468Z,67.02
2023-07-25T07:44:37.983Z,67.03
2023-07-25T07:47:04.732Z,66.68
2023-07-25T07:49:33.434Z,66.91
2023-07-25T07:52:13.429Z,66.86
2023-07-25T07:54:46.353Z,66.96
2023-07-25T07:57:12.861Z,67.05
2023-07-25T07:59:39.332Z,67.07
2023-07-25T08:02:06.256Z,65.87
2023-07-25T08:04:33.194Z,64.78
2023-07-25T08:06:59.663Z,65.03
2023-07-25T08:09:26.163Z,63.65
2023-07-25T08:11:52.769Z,63.43
2023-07-25T08:14:19.285Z,63.02
2023-07-25T08:16:45.815Z,62.84
2023-07-25T08:19:12.316Z,62.04
2023-07-25T08:21:39.028Z,61.28
2023-07-25T08:24:06.060Z,62.58
2023-07-25T08:26:32.883Z,62.05
2023-07-25T08:28:59.425Z,62.11
2023-07-25T08:31:25.924Z,62.08
2023-07-25T08:33:52.422Z,62.63
2023-07-25T08:36:18.911Z,61.50
2023-07-25T08:38:45.432Z,60.16
2023-07-25T08:41:18.169Z,59.93
2023-07-25T08:43:45.197Z,60.22
2023-07-25T08:46:13.240Z,59.65
2023-07-25T08:48:42.246Z,59.23
2023-07-25T08:51:20.038Z,60.68
2023-07-25T08:54:12.466Z,61.13
2023-07-25T08:56:42.835Z,59.94
2023-07-25T08:59:11.438Z,58.76
2023-07-25T09:01:38.402Z,60.41
2023-07-25T09:04:05.298Z,58.06
2023-07-25T09:06:33.036Z,59.45
2023-07-25T09:08:59.649Z,59.38
2023-07-25T09:11:27.274Z,60.17
2023-07-25T09:13:54.169Z,58.92
2023-07-25T09:16:20.685Z,59.16
2023-07-25T09:18:47.205Z,58.14
2023-07-25T09:21:15.783Z,58.28
2023-07-25T09:23:54.322Z,58.75
2023-07-25T09:26:31.727Z,59.00
2023-07-25T09:29:01.972Z,59.47
2023-07-25T09:31:29.680Z,59.05
2023-07-25T09:33:57.208Z,58.36
2023-07-25T09:36:23.929Z,58.37
2023-07-25T09:38:55.438Z,57.92
2023-07-25T09:41:26.120Z,58.20
2023-07-25T09:43:53.222Z,57.67
2023-07-25T09:46:20.525Z,55.81
2023-07-25T09:48:52.163Z,57.60
2023-07-25T09:51:19.282Z,57.16
2023-07-25T09:53:50.536Z,56.98
2023-07-25T09:56:17.006Z,56.70
2023-07-25T09:59:00.556Z,56.58
2023-07-25T10:01:31.081Z,56.62
2023-07-25T10:03:58.019Z,55.84
2023-07-25T10:06:26.278Z,54.67
2023-07-25T10:08:54.276Z,55.03
2023-07-25T10:11:22.765Z,55.72
2023-07-25T10:13:52.187Z,56.20
2023-07-25T10:16:20.897Z,55.35
2023-07-25T10:18:55.521Z,55.13
2023-07-25T10:21:28.116Z,54.30
2023-07-25T10:24:04.089Z,54.26
2023-07-25T10:26:30.722Z,55.10
2023-07-25T10:29:00.449Z,55.35
2023-07-25T10:31:34.724Z,55.97
2023-07-25T10:34:05.900Z,55.08
2023-07-25T10:36:32.550Z,54.62
2023-07-25T10:39:05.451Z,54.95
2023-07-25T10:41:32.062Z,54.39
2023-07-25T10:44:04.426Z,55.96
2023-07-25T10:46:35.378Z,54.69
2023-07-25T10:49:04.290Z,55.29
2023-07-25T10:51:46.832Z,55.06
2023-07-25T10:54:13.692Z,53.73
2023-07-25T10:56:41.453Z,54.43
2023-07-25T10:59:09.952Z,53.46
2023-07-25T11:01:39.749Z,54.97
2023-07-25T11:04:26.836Z,53.71
2023-07-25T11:06:55.685Z,54.59
2023-07-25T11:09:23.623Z,54.32
2023-07-25T11:11:52.507Z,55.61
2023-07-25T11:14:20.306Z,55.91
2023-07-25T11:16:49.487Z,55.63
2023-07-25T11:19:16.545Z,57.02
2023-07-25T11:21:47.318Z,55.97
2023-07-25T11:24:14.026Z,55.23
2023-07-25T11:26:41.188Z,56.32
2023-07-25T11:29:09.277Z,55.59
2023-07-25T11:31:43.128Z,56.84
2023-07-25T11:34:14.893Z,57.33
2023-07-25T11:36:41.768Z,60.66
2023-07-25T11:39:09.806Z,62.39
2023-07-25T11:41:37.785Z,61.65
2023-07-25T11:44:12.828Z,60.34
2023-07-25T11:46:54.032Z,61.04
2023-07-25T11:49:40.430Z,60.78
2023-07-25T11:52:09.232Z,61.12
2023-07-25T11:54:36.547Z,61.04
2023-07-25T11:57:03.857Z,61.25
2023-07-25T11:59:30.893Z,61.42
2023-07-25T12:02:06.485Z,61.76
2023-07-25T12:04:33.065Z,61.65
2023-07-25T12:07:00.120Z,62.11
2023-07-25T12:09:30.106Z,61.83
2023-07-25T12:11:56.642Z,61.57
2023-07-25T12:14:23.411Z,61.54
2023-07-25T12:16:50.121Z,60.98
2023-07-25T12:19:16.691Z,61.27
2023-07-25T12:21:45.290Z,61.11
2023-07-25T12:24:14.385Z,60.99
2023-07-25T12:26:45.872Z,61.24
2023-07-25T12:29:16.715Z,60.80
2023-07-25T12:31:44.022Z,61.05
2023-07-25T12:34:10.514Z,60.21
2023-07-25T12:36:38.106Z,59.36
2023-07-25T12:39:04.947Z,59.51
2023-07-25T12:41:31.475Z,57.93
2023-07-25T12:43:59.106Z,56.62
2023-07-25T12:46:26.862Z,55.73
2023-07-25T12:48:53.333Z,55.13
2023-07-25T12:51:19.836Z,55.81
2023-07-25T12:53:46.297Z,56.14
2023-07-25T12:56:12.769Z,54.34
2023-07-25T12:58:39.230Z,54.46
2023-07-25T13:01:05.737Z,54.63
2023-07-25T13:03:40.117Z,54.56
2023-07-25T13:06:06.720Z,54.33
2023-07-25T13:08:33.213Z,54.77
2023-07-25T13:10:59.727Z,55.66
2023-07-25T13:13:26.248Z,54.17
2023-07-25T13:15:52.966Z,54.54
2023-07-25T13:18:20.118Z,54.71
2023-07-25T13:20:47.417Z,54.89
2023-07-25T13:23:14.994Z,55.73
2023-07-25T13:25:44.887Z,55.41
2023-07-25T13:28:11.904Z,55.96
2023-07-25T13:30:38.450Z,56.51
2023-07-25T13:33:06.404Z,57.39
2023-07-25T13:35:34.262Z,56.65
2023-07-25T13:38:01.581Z,56.32
2023-07-25T13:40:29.448Z,55.44
2023-07-25T13:42:56.102Z,56.40
2023-07-25T13:45:26.654Z,57.15
2023-07-25T13:47:57.849Z,56.91
2023-07-25T13:50:28.343Z,55.46
2023-07-25T13:52:59.018Z,57.59
2023-07-25T13:55:25.400Z,55.58
2023-07-25T13:57:52.808Z,55.61
2023-07-25T14:00:20.001Z,56.19
2023-07-25T14:02:46.542Z,56.85
2023-07-25T14:05:13.024Z,56.43
2023-07-25T14:07:39.497Z,56.57
2023-07-25T14:10:06.827Z,55.91
2023-07-25T14:12:33.447Z,56.19
2023-07-25T14:15:02.081Z,56.76
2023-07-25T14:17:29.518Z,56.58
2023-07-25T14:19:56.035Z,56.95
2023-07-25T14:22:23.520Z,54.74
2023-07-25T14:24:49.988Z,56.60
2023-07-25T14:27:18.168Z,54.48
2023-07-25T14:29:44.750Z,54.41
2023-07-25T14:32:11.185Z,55.52
2023-07-25T14:34:37.568Z,56.02
2023-07-25T14:37:04.312Z,54.21
2023-07-25T14:39:30.820Z,54.93
2023-07-25T14:41:57.234Z,55.05
2023-07-25T14:44:23.733Z,53.69
2023-07-25T14:46:50.287Z,52.91
2023-07-25T14:49:16.957Z,54.30
2023-07-25T14:51:43.563Z,51.79
2023-07-25T14:54:10.023Z,49.18
2023-07-25T14:56:36.610Z,49.57
2023-07-25T14:59:04.211Z,49.44
2023-07-25T15:01:30.877Z,49.49
2023-07-25T15:04:00.629Z,50.02
2023-07-25T15:06:27.139Z,49.67
2023-07-25T15:08:53.631Z,49.03
2023-07-25T15:11:21.389Z,49.94
2023-07-25T15:13:48.412Z,49.12
2023-07-25T15:16:14.924Z,50.20
2023-07-25T15:18:42.299Z,49.59
2023-07-25T15:21:08.843Z,50.06
2023-07-25T15:23:35.474Z,50.86
2023-07-25T15:26:02.125Z,51.54
2023-07-25T15:28:29.239Z,50.88
2023-07-25T15:30:57.872Z,50.94
2023-07-25T15:33:25.516Z,50.54
2023-07-25T15:35:51.993Z,50.70
2023-07-25T15:38:18.541Z,51.99
2023-07-25T15:40:45.028Z,52.54
2023-07-25T15:43:11.549Z,52.82
2023-07-25T15:45:38.593Z,51.80
2023-07-25T15:48:05.618Z,52.93
2023-07-25T15:50:35.074Z,52.98
2023-07-25T15:53:01.996Z,53.73
2023-07-25T15:55:28.499Z,54.24
2023-07-25T15:57:55.165Z,54.34
2023-07-25T16:00:21.704Z,54.94
2023-07-25T16:02:48.212Z,55.26
2023-07-25T16:05:14.840Z,55.03
2023-07-25T16:07:41.270Z,55.61
2023-07-25T16:10:07.982Z,55.94
2023-07-25T16:12:34.908Z,55.97
2023-07-25T16:15:04.383Z,55.83
2023-07-25T16:17:30.795Z,55.77
2023-07-25T16:19:57.234Z,55.45
2023-07-25T16:22:24.826Z,55.78
2023-07-25T16:24:51.381Z,55.88
2023-07-25T16:27:17.970Z,56.67
2023-07-25T16:29:44.499Z,56.42
2023-07-25T16:32:11.627Z,55.92
2023-07-25T16:34:39.102Z,55.95
2023-07-25T16:37:05.870Z,55.95
2023-07-25T16:39:32.691Z,55.74
2023-07-25T16:41:59.117Z,55.57
2023-07-25T16:44:25.573Z,55.25
2023-07-25T16:46:52.081Z,55.62
2023-07-25T16:49:18.600Z,56.02
2023-07-25T16:51:46.206Z,55.24
2023-07-25T16:54:12.753Z,55.13
2023-07-25T16:56:39.306Z,55.13
2023-07-25T16:59:05.847Z,54.44
2023-07-25T17:01:32.715Z,54.64
2023-07-25T17:03:59.424Z,54.42
2023-07-25T17:06:26.149Z,54.54
2023-07-25T17:08:53.002Z,54.26
2023-07-25T17:11:19.471Z,54.50
2023-07-25T17:13:45.926Z,54.39
2023-07-25T17:16:12.388Z,54.29
2023-07-25T17:18:38.881Z,54.58
2023-07-25T17:21:05.348Z,54.87
2023-07-25T17:23:32.525Z,54.76
2023-07-25T17:25:58.998Z,55.88
2023-07-25T17:28:25.953Z,56.01
2023-07-25T17:30:52.351Z,54.60
2023-07-25T17:33:18.835Z,54.81
2023-07-25T17:35:45.228Z,54.83
2023-07-25T17:38:14.952Z,55.18
2023-07-25T17:40:45.082Z,55.60
2023-07-25T17:43:11.615Z,55.80
2023-07-25T17:45:38.168Z,55.82
2023-07-25T17:48:04.764Z,56.04
2023-07-25T17:50:31.443Z,56.38
2023-07-25T17:52:57.934Z,56.19
2023-07-25T17:55:24.382Z,56.79
2023-07-25T17:57:50.862Z,57.01
2023-07-25T18:00:17.742Z,57.02
2023-07-25T18:02:44.802Z,57.30
2023-07-25T18:05:11.317Z,56.92
2023-07-25T18:07:37.766Z,57.38
2023-07-25T18:10:04.669Z,56.65
2023-07-25T18:12:31.112Z,56.43
2023-07-25T18:14:57.621Z,55.41
2023-07-25T18:17:24.153Z,55.36
2023-07-25T18:19:50.947Z,54.95
2023-07-25T18:22:17.395Z,55.06
2023-07-25T18:24:43.983Z,55.87
2023-07-25T18:27:10.681Z,54.99
2023-07-25T18:29:37.092Z,55.71
2023-07-25T18:32:03.731Z,55.66
2023-07-25T18:34:30.190Z,55.46
2023-07-25T18:36:56.665Z,55.56
2023-07-25T18:39:23.127Z,56.36
2023-07-25T18:41:49.609Z,56.87
2023-07-25T18:44:16.057Z,56.72
2023-07-25T18:46:42.619Z,56.59
2023-07-25T18:49:09.105Z,57.14
2023-07-25T18:51:35.543Z,57.31
2023-07-25T18:54:02.126Z,57.91
2023-07-25T18:56:28.734Z,58.78
2023-07-25T18:58:55.216Z,59.45
2023-07-25T19:01:23.044Z,60.22
2023-07-25T19:03:49.570Z,60.93
2023-07-25T19:06:16.117Z,60.99
2023-07-25T19:08:42.576Z,61.25
2023-07-25T19:11:09.038Z,61.82
2023-07-25T19:13:35.472Z,62.04
2023-07-25T19:16:02.067Z,62.02
2023-07-25T19:18:28.735Z,61.52
2023-07-25T19:20:55.204Z,61.55
2023-07-25T19:23:26.678Z,61.60
2023-07-25T19:25:58.434Z,61.32
2023-07-25T19:28:25.289Z,61.89
2023-07-25T19:30:51.789Z,61.11
2023-07-25T19:33:18.475Z,61.39
2023-07-25T19:35:55.705Z,61.20
2023-07-25T19:38:23.045Z,61.32
2023-07-25T19:40:49.580Z,60.84
2023-07-25T19:43:16.071Z,59.79
2023-07-25T19:45:42.571Z,59.23
2023-07-25T19:48:10.045Z,58.85
2023-07-25T19:50:36.558Z,58.21
2023-07-25T19:53:04.199Z,58.07
2023-07-25T19:55:30.711Z,58.24
2023-07-25T19:57:57.183Z,58.44
2023-07-25T20:00:23.739Z,58.36
2023-07-25T20:02:50.401Z,58.85
2023-07-25T20:05:16.989Z,59.15
2023-07-25T20:07:43.401Z,59.16
2023-07-25T20:10:10.234Z,59.18
2023-07-25T20:12:36.856Z,59.01
2023-07-25T20:15:04.029Z,59.36
2023-07-25T20:17:30.511Z,59.82
2023-07-25T20:19:56.922Z,59.98
2023-07-25T20:22:23.366Z,60.06
2023-07-25T20:24:49.840Z,60.65
2023-07-25T20:27:17.815Z,60.64
2023-07-25T20:29:44.266Z,61.02
2023-07-25T20:32:10.775Z,61.13
2023-07-25T20:34:37.248Z,61.48
2023-07-25T20:37:03.740Z,61.44
2023-07-25T20:39:30.179Z,61.57
2023-07-25T20:41:56.668Z,61.86
2023-07-25T20:44:23.136Z,62.11
2023-07-25T20:46:49.728Z,62.02
2023-07-25T20:49:16.254Z,62.20
2023-07-25T20:51:42.783Z,62.45
2023-07-25T20:54:09.284Z,62.56
2023-07-25T20:56:35.755Z,62.51
2023-07-25T20:59:02.245Z,62.61
2023-07-25T21:01:28.757Z,62.83
2023-07-25T21:03:55.274Z,62.93
2023-07-25T21:06:21.809Z,63.02
2023-07-25T21:08:48.376Z,63.20
2023-07-25T21:11:14.954Z,63.29
2023-07-25T21:13:42.217Z,63.59
2023-07-25T21:16:08.724Z,63.90
2023-07-25T21:18:35.177Z,64.03
2023-07-25T21:21:02.769Z,64.00
2023-07-25T21:23:29.414Z,64.33
2023-07-25T21:25:55.951Z,65.07
2023-07-25T21:28:22.432Z,65.39
2023-07-25T21:30:48.990Z,65.67
2023-07-25T21:33:16.013Z,65.92
2023-07-25T21:35:42.510Z,67.48
2023-07-25T21:38:08.912Z,66.97
2023-07-25T21:40:35.313Z,67.21
2023-07-25T21:43:04.961Z,67.88
2023-07-25T21:45:32.754Z,67.93
2023-07-25T21:47:59.383Z,68.04
2023-07-25T21:50:25.890Z,68.19
2023-07-25T21:52:52.445Z,67.97
2023-07-25T21:55:18.868Z,68.40
2023-07-25T21:57:45.347Z,68.27
2023-07-25T22:00:12.600Z,68.66
2023-07-25T22:02:39.079Z,68.45
2023-07-25T22:05:06.094Z,68.54
2023-07-25T22:07:35.434Z,68.59
2023-07-25T22:10:02.197Z,68.66
2023-07-25T22:12:28.714Z,68.86
2023-07-25T22:14:55.173Z,69.05
2023-07-25T22:17:21.760Z,69.30
2023-07-25T22:19:48.611Z,69.30
2023-07-25T22:22:15.002Z,69.38
2023-07-25T22:24:41.522Z,69.36
2023-07-25T22:27:07.938Z,69.12
2023-07-25T22:29:34.351Z,69.43
2023-07-25T22:32:03.017Z,69.79
2023-07-25T22:34:29.660Z,69.55
2023-07-25T22:36:56.078Z,69.98
2023-07-25T22:39:22.643Z,69.91
2023-07-25T22:41:49.105Z,69.87
2023-07-25T22:44:15.597Z,70.03
2023-07-25T22:46:42.098Z,70.18
2023-07-25T22:49:08.523Z,69.95
2023-07-25T22:51:35.035Z,69.93
2023-07-25T22:54:04.425Z,69.88
2023-07-25T22:56:31.182Z,69.91
2023-07-25T22:58:57.838Z,69.83
2023-07-25T23:01:24.336Z,70.12
2023-07-25T23:03:50.858Z,70.03
2023-07-25T23:06:17.305Z,69.99
2023-07-25T23:08:43.705Z,69.79
2023-07-25T23:11:11.329Z,70.15
2023-07-25T23:13:37.747Z,70.26
2023-07-25T23:16:04.489Z,70.16
2023-07-25T23:18:31.041Z,70.57
2023-07-25T23:20:57.513Z,70.09
2023-07-25T23:23:23.917Z,70.30
2023-07-25T23:25:50.382Z,70.48
2023-07-25T23:28:16.933Z,70.22
2023-07-25T23:30:43.662Z,70.29
2023-07-25T23:33:10.298Z,70.32
2023-07-25T23:35:36.815Z,70.32
2023-07-25T23:38:03.493Z,70.65
2023-07-25T23:40:30.111Z,70.37
2023-07-25T23:42:56.572Z,70.03
2023-07-25T23:45:23.195Z,69.92
2023-07-25T23:47:49.695Z,70.00
2023-07-25T23:50:16.513Z,70.00
2023-07-25T23:52:43.120Z,69.93
2023-07-25T23:55:09.629Z,70.21
2023-07-25T23:57:36.246Z,70.15
